ARN weather

Stockholm-Arlanda Airport
Stockholm, Stockholms län, Sweden

Public forecast

Using degrees Celsius for public forecast. Weather courtesy of forecast.io.

METAR (pilot weather report)

Retrieved 2019/02/15 22:20 UTC (38 minutes ago):

ESSA 152220Z 26013KT CAVOK 03/00 Q1016 R01L/19//95 R08/19//95 R01R/19//95 NOSIG

TAF (pilot weather forecast)

Retrieved 2019/02/15 18:33 UTC (4 hours ago):

TAF ESSA 151730Z 1518/1618 26010KT CAVOK TEMPO 1518/1524 BKN009